KILG/ILG METAR and TAF weather

Enter ICAO airport designator
Station Type Date Time Source
KILG METAR 2020/09/27 17:09 UTC NOAA

KILG 271709Z 09004KT 10SM SCT015 OVC041 23/19 A2997 RMK AO2 T02330189 $


Station Type Date Time Source
KILG Decoded METAR 2020/09/27 17:09 UTC NOAA

WILMINGTON NEW CASTLE CO, DE, United States (KILG) 39-40N 075-36W 28M
Sep 27, 2020 - 01:09 PM EDT / 2020.09.27 1709 UTC
Wind: from the E (090 degrees) at 5 MPH (4 KT):0
Visibility: 10 mile(s):0
Sky conditions: overcast
Temperature: 73.9 F (23.3 C)
Dew Point: 66.0 F (18.9 C)
Relative Humidity: 76%
Pressure (altimeter): 29.97 in. Hg (1014 hPa)
ob: KILG 271709Z 09004KT 10SM SCT015 OVC041 23/19 A2997 RMK AO2 T02330189
cycle: 17

Station Type Date Time Source
KILG TAF 2020/09/27 14:33 UTC NOAA

TAF
AMD KILG 271331Z 2714/2812 VRB04KT P6SM BKN015
TEMPO 2714/2717 SCT015 OVC040
FM271700 VRB04KT P6SM BKN040
FM280100 VRB04KT P6SM BKN015
FM280400 VRB04KT P6SM OVC008

Example: see airport list